sensor_id;sensor_type;location;lat;lon;timestamp;P1;durP1;ratioP1;P2;durP2;ratioP2
13731;SDS011;6937;56.096;12.664;2023-04-01T00:00:54;1.98;;;1.80;;
13731;SDS011;6937;56.096;12.664;2023-04-01T00:03:21;1.70;;;1.45;;
13731;SDS011;6937;56.096;12.664;2023-04-01T00:05:47;3.53;;;1.90;;
13731;SDS011;6937;56.096;12.664;2023-04-01T00:08:12;2.42;;;1.77;;
13731;SDS011;6937;56.096;12.664;2023-04-01T00:10:38;1.73;;;1.60;;
13731;SDS011;6937;56.096;12.664;2023-04-01T00:13:03;2.28;;;1.70;;
13731;SDS011;6937;56.096;12.664;2023-04-01T00:15:29;2.38;;;2.00;;
13731;SDS011;6937;56.096;12.664;2023-04-01T00:17:54;2.60;;;1.85;;
13731;SDS011;6937;56.096;12.664;2023-04-01T00:20:20;2.35;;;2.15;;
13731;SDS011;6937;56.096;12.664;2023-04-01T00:22:46;3.58;;;1.80;;
13731;SDS011;6937;56.096;12.664;2023-04-01T00:25:12;2.20;;;2.00;;
13731;SDS011;6937;56.096;12.664;2023-04-01T00:27:38;2.05;;;1.88;;
13731;SDS011;6937;56.096;12.664;2023-04-01T00:30:03;2.03;;;1.92;;
13731;SDS011;6937;56.096;12.664;2023-04-01T00:32:29;2.95;;;2.05;;
13731;SDS011;6937;56.096;12.664;2023-04-01T00:34:56;2.33;;;1.90;;
13731;SDS011;6937;56.096;12.664;2023-04-01T00:37:23;3.33;;;2.33;;
13731;SDS011;6937;56.096;12.664;2023-04-01T00:39:49;2.15;;;2.00;;
13731;SDS011;6937;56.096;12.664;2023-04-01T00:42:14;2.95;;;2.35;;
13731;SDS011;6937;56.096;12.664;2023-04-01T00:44:40;2.72;;;2.10;;
13731;SDS011;6937;56.096;12.664;2023-04-01T00:47:06;2.33;;;2.10;;
13731;SDS011;6937;56.096;12.664;2023-04-01T00:49:36;1.90;;;1.80;;
13731;SDS011;6937;56.096;12.664;2023-04-01T00:52:06;3.22;;;2.17;;
13731;SDS011;6937;56.096;12.664;2023-04-01T00:54:33;2.88;;;2.22;;
13731;SDS011;6937;56.096;12.664;2023-04-01T00:59:27;3.15;;;2.40;;
13731;SDS011;6937;56.096;12.664;2023-04-01T01:01:56;2.78;;;2.58;;
13731;SDS011;6937;56.096;12.664;2023-04-01T01:06:55;2.55;;;2.35;;
13731;SDS011;6937;56.096;12.664;2023-04-01T01:14:27;2.33;;;2.13;;
13731;SDS011;6937;56.096;12.664;2023-04-01T01:17:14;2.83;;;2.42;;
13731;SDS011;6937;56.096;12.664;2023-04-01T01:23:10;2.65;;;2.40;;
13731;SDS011;6937;56.096;12.664;2023-04-01T01:34:32;3.63;;;2.92;;
13731;SDS011;6937;56.096;12.664;2023-04-01T01:37:12;3.92;;;2.90;;
13731;SDS011;6937;56.096;12.664;2023-04-01T01:39:41;4.05;;;3.10;;
13731;SDS011;6937;56.096;12.664;2023-04-01T01:42:09;4.80;;;3.28;;
13731;SDS011;6937;56.096;12.664;2023-04-01T01:44:40;3.75;;;3.03;;
13731;SDS011;6937;56.096;12.664;2023-04-01T01:47:09;3.67;;;3.10;;
13731;SDS011;6937;56.096;12.664;2023-04-01T01:49:35;3.30;;;2.88;;
13731;SDS011;6937;56.096;12.664;2023-04-01T01:52:02;3.25;;;2.88;;
13731;SDS011;6937;56.096;12.664;2023-04-01T01:54:28;3.38;;;3.08;;
13731;SDS011;6937;56.096;12.664;2023-04-01T01:57:01;6.57;;;3.17;;
13731;SDS011;6937;56.096;12.664;2023-04-01T01:59:31;3.75;;;3.45;;
13731;SDS011;6937;56.096;12.664;2023-04-01T02:02:00;4.70;;;3.08;;
13731;SDS011;6937;56.096;12.664;2023-04-01T02:04:33;4.45;;;3.55;;
13731;SDS011;6937;56.096;12.664;2023-04-01T02:07:02;3.58;;;2.80;;
13731;SDS011;6937;56.096;12.664;2023-04-01T02:09:32;3.88;;;2.60;;
13731;SDS011;6937;56.096;12.664;2023-04-01T02:12:00;4.00;;;3.00;;
13731;SDS011;6937;56.096;12.664;2023-04-01T02:14:31;3.38;;;2.75;;
13731;SDS011;6937;56.096;12.664;2023-04-01T02:17:19;3.72;;;3.20;;
13731;SDS011;6937;56.096;12.664;2023-04-01T02:19:52;3.50;;;3.13;;
13731;SDS011;6937;56.096;12.664;2023-04-01T02:22:28;3.97;;;2.65;;
13731;SDS011;6937;56.096;12.664;2023-04-01T02:25:01;2.90;;;2.65;;
13731;SDS011;6937;56.096;12.664;2023-04-01T02:27:30;5.13;;;3.25;;
13731;SDS011;6937;56.096;12.664;2023-04-01T02:29:56;3.08;;;2.55;;
13731;SDS011;6937;56.096;12.664;2023-04-01T02:32:23;3.70;;;2.95;;
13731;SDS011;6937;56.096;12.664;2023-04-01T02:34:49;6.20;;;3.08;;
13731;SDS011;6937;56.096;12.664;2023-04-01T02:37:15;3.42;;;3.00;;
13731;SDS011;6937;56.096;12.664;2023-04-01T02:39:42;6.43;;;3.33;;
13731;SDS011;6937;56.096;12.664;2023-04-01T02:42:08;4.65;;;3.38;;
13731;SDS011;6937;56.096;12.664;2023-04-01T02:44:33;5.72;;;3.47;;
13731;SDS011;6937;56.096;12.664;2023-04-01T02:46:58;4.15;;;3.10;;
13731;SDS011;6937;56.096;12.664;2023-04-01T02:49:24;5.55;;;3.25;;
13731;SDS011;6937;56.096;12.664;2023-04-01T02:51:49;4.70;;;3.10;;
13731;SDS011;6937;56.096;12.664;2023-04-01T02:54:16;5.40;;;3.10;;
13731;SDS011;6937;56.096;12.664;2023-04-01T02:56:42;4.43;;;3.20;;
13731;SDS011;6937;56.096;12.664;2023-04-01T02:59:07;4.47;;;2.95;;
13731;SDS011;6937;56.096;12.664;2023-04-01T03:01:33;5.13;;;3.10;;
13731;SDS011;6937;56.096;12.664;2023-04-01T03:03:58;4.63;;;3.00;;
13731;SDS011;6937;56.096;12.664;2023-04-01T03:06:23;4.05;;;3.20;;
13731;SDS011;6937;56.096;12.664;2023-04-01T03:08:49;5.63;;;3.33;;
13731;SDS011;6937;56.096;12.664;2023-04-01T03:11:15;6.22;;;3.35;;
13731;SDS011;6937;56.096;12.664;2023-04-01T03:13:40;4.30;;;3.13;;
13731;SDS011;6937;56.096;12.664;2023-04-01T03:16:06;4.57;;;3.10;;
13731;SDS011;6937;56.096;12.664;2023-04-01T03:18:32;4.63;;;2.80;;
13731;SDS011;6937;56.096;12.664;2023-04-01T03:20:57;3.60;;;2.80;;
13731;SDS011;6937;56.096;12.664;2023-04-01T03:23:22;5.55;;;3.38;;
13731;SDS011;6937;56.096;12.664;2023-04-01T03:25:49;3.88;;;2.50;;
13731;SDS011;6937;56.096;12.664;2023-04-01T03:28:15;4.07;;;2.85;;
13731;SDS011;6937;56.096;12.664;2023-04-01T03:30:40;4.60;;;3.40;;
13731;SDS011;6937;56.096;12.664;2023-04-01T03:33:06;5.43;;;3.08;;
13731;SDS011;6937;56.096;12.664;2023-04-01T03:35:31;5.97;;;3.30;;
13731;SDS011;6937;56.096;12.664;2023-04-01T03:37:57;4.10;;;3.00;;
13731;SDS011;6937;56.096;12.664;2023-04-01T03:40:22;5.30;;;3.28;;
13731;SDS011;6937;56.096;12.664;2023-04-01T03:42:48;4.97;;;2.97;;
13731;SDS011;6937;56.096;12.664;2023-04-01T03:45:14;5.75;;;3.00;;
13731;SDS011;6937;56.096;12.664;2023-04-01T03:47:39;3.47;;;3.00;;
13731;SDS011;6937;56.096;12.664;2023-04-01T03:50:07;4.60;;;3.10;;
13731;SDS011;6937;56.096;12.664;2023-04-01T03:52:33;4.13;;;3.00;;
13731;SDS011;6937;56.096;12.664;2023-04-01T03:54:59;4.00;;;2.80;;
13731;SDS011;6937;56.096;12.664;2023-04-01T03:57:25;3.22;;;2.40;;
13731;SDS011;6937;56.096;12.664;2023-04-01T03:59:51;3.72;;;2.60;;
13731;SDS011;6937;56.096;12.664;2023-04-01T04:02:16;3.97;;;2.70;;
13731;SDS011;6937;56.096;12.664;2023-04-01T04:04:41;2.97;;;2.53;;
13731;SDS011;6937;56.096;12.664;2023-04-01T04:07:07;3.25;;;2.95;;
13731;SDS011;6937;56.096;12.664;2023-04-01T04:09:33;6.57;;;2.80;;
13731;SDS011;6937;56.096;12.664;2023-04-01T04:11:58;2.80;;;2.53;;
13731;SDS011;6937;56.096;12.664;2023-04-01T04:14:24;3.03;;;2.47;;
13731;SDS011;6937;56.096;12.664;2023-04-01T04:16:50;4.07;;;2.33;;
13731;SDS011;6937;56.096;12.664;2023-04-01T04:19:15;3.92;;;2.20;;
13731;SDS011;6937;56.096;12.664;2023-04-01T04:21:41;3.83;;;2.67;;
13731;SDS011;6937;56.096;12.664;2023-04-01T04:24:07;3.38;;;2.28;;
13731;SDS011;6937;56.096;12.664;2023-04-01T04:26:32;3.80;;;2.40;;
13731;SDS011;6937;56.096;12.664;2023-04-01T04:28:58;2.95;;;2.33;;
13731;SDS011;6937;56.096;12.664;2023-04-01T04:31:23;3.45;;;2.40;;
13731;SDS011;6937;56.096;12.664;2023-04-01T04:33:50;4.38;;;2.60;;
13731;SDS011;6937;56.096;12.664;2023-04-01T04:36:16;3.60;;;2.85;;
13731;SDS011;6937;56.096;12.664;2023-04-01T04:38:42;4.63;;;2.42;;
13731;SDS011;6937;56.096;12.664;2023-04-01T04:41:08;3.55;;;2.55;;
13731;SDS011;6937;56.096;12.664;2023-04-01T04:43:35;3.05;;;2.30;;
13731;SDS011;6937;56.096;12.664;2023-04-01T04:46:03;2.83;;;2.55;;
13731;SDS011;6937;56.096;12.664;2023-04-01T04:48:30;2.83;;;2.10;;
13731;SDS011;6937;56.096;12.664;2023-04-01T04:50:56;2.72;;;2.17;;
13731;SDS011;6937;56.096;12.664;2023-04-01T04:53:21;2.92;;;2.10;;
13731;SDS011;6937;56.096;12.664;2023-04-01T04:55:47;2.93;;;2.10;;
13731;SDS011;6937;56.096;12.664;2023-04-01T04:58:14;3.20;;;2.28;;
13731;SDS011;6937;56.096;12.664;2023-04-01T05:00:40;3.33;;;2.03;;
13731;SDS011;6937;56.096;12.664;2023-04-01T05:03:05;3.10;;;1.92;;
13731;SDS011;6937;56.096;12.664;2023-04-01T05:05:31;3.55;;;2.03;;
13731;SDS011;6937;56.096;12.664;2023-04-01T05:07:56;3.13;;;2.00;;
13731;SDS011;6937;56.096;12.664;2023-04-01T05:10:22;1.80;;;1.70;;
13731;SDS011;6937;56.096;12.664;2023-04-01T05:12:47;3.13;;;1.98;;
13731;SDS011;6937;56.096;12.664;2023-04-01T05:15:12;2.40;;;1.90;;
13731;SDS011;6937;56.096;12.664;2023-04-01T05:17:38;2.10;;;1.90;;
13731;SDS011;6937;56.096;12.664;2023-04-01T05:20:04;4.10;;;1.80;;
13731;SDS011;6937;56.096;12.664;2023-04-01T05:22:30;2.88;;;1.90;;
13731;SDS011;6937;56.096;12.664;2023-04-01T05:24:55;2.75;;;1.70;;
13731;SDS011;6937;56.096;12.664;2023-04-01T05:27:21;3.30;;;1.90;;
13731;SDS011;6937;56.096;12.664;2023-04-01T05:29:46;2.83;;;1.90;;
13731;SDS011;6937;56.096;12.664;2023-04-01T05:32:12;3.10;;;1.65;;
13731;SDS011;6937;56.096;12.664;2023-04-01T05:34:37;2.53;;;1.50;;
13731;SDS011;6937;56.096;12.664;2023-04-01T05:37:02;3.70;;;1.98;;
13731;SDS011;6937;56.096;12.664;2023-04-01T05:39:28;3.53;;;1.90;;
13731;SDS011;6937;56.096;12.664;2023-04-01T05:41:53;2.60;;;1.88;;
13731;SDS011;6937;56.096;12.664;2023-04-01T05:44:19;3.20;;;1.85;;
13731;SDS011;6937;56.096;12.664;2023-04-01T05:46:44;2.47;;;1.80;;
13731;SDS011;6937;56.096;12.664;2023-04-01T05:49:10;3.97;;;1.83;;
13731;SDS011;6937;56.096;12.664;2023-04-01T05:51:35;2.10;;;1.60;;
13731;SDS011;6937;56.096;12.664;2023-04-01T05:54:01;1.80;;;1.47;;
13731;SDS011;6937;56.096;12.664;2023-04-01T05:56:26;1.92;;;1.67;;
13731;SDS011;6937;56.096;12.664;2023-04-01T05:58:53;3.30;;;1.75;;
13731;SDS011;6937;56.096;12.664;2023-04-01T06:01:19;2.83;;;1.70;;
13731;SDS011;6937;56.096;12.664;2023-04-01T06:03:45;2.10;;;1.58;;
13731;SDS011;6937;56.096;12.664;2023-04-01T06:06:12;3.38;;;1.85;;
13731;SDS011;6937;56.096;12.664;2023-04-01T06:08:40;2.58;;;2.00;;
13731;SDS011;6937;56.096;12.664;2023-04-01T06:16:44;3.22;;;2.33;;
13731;SDS011;6937;56.096;12.664;2023-04-01T06:19:15;2.22;;;1.70;;
13731;SDS011;6937;56.096;12.664;2023-04-01T06:40:34;1.98;;;1.30;;
13731;SDS011;6937;56.096;12.664;2023-04-01T06:43:15;1.90;;;1.30;;
13731;SDS011;6937;56.096;12.664;2023-04-01T06:46:02;4.37;;;1.60;;
13731;SDS011;6937;56.096;12.664;2023-04-01T06:48:43;1.50;;;1.15;;
13731;SDS011;6937;56.096;12.664;2023-04-01T06:51:28;3.20;;;1.20;;
13731;SDS011;6937;56.096;12.664;2023-04-01T06:54:03;2.88;;;1.20;;
13731;SDS011;6937;56.096;12.664;2023-04-01T06:56:31;2.15;;;1.23;;
13731;SDS011;6937;56.096;12.664;2023-04-01T06:58:58;2.03;;;1.13;;
13731;SDS011;6937;56.096;12.664;2023-04-01T07:01:34;2.42;;;1.20;;
13731;SDS011;6937;56.096;12.664;2023-04-01T07:06:39;2.42;;;1.33;;
13731;SDS011;6937;56.096;12.664;2023-04-01T07:09:15;3.28;;;1.10;;
13731;SDS011;6937;56.096;12.664;2023-04-01T07:11:44;3.10;;;1.27;;
13731;SDS011;6937;56.096;12.664;2023-04-01T07:14:13;1.92;;;1.20;;
13731;SDS011;6937;56.096;12.664;2023-04-01T07:19:53;3.05;;;1.00;;
13731;SDS011;6937;56.096;12.664;2023-04-01T07:22:26;2.65;;;1.13;;
13731;SDS011;6937;56.096;12.664;2023-04-01T07:27:47;1.48;;;0.90;;
13731;SDS011;6937;56.096;12.664;2023-04-01T07:35:31;3.42;;;1.20;;
13731;SDS011;6937;56.096;12.664;2023-04-01T07:38:40;2.78;;;1.33;;
13731;SDS011;6937;56.096;12.664;2023-04-01T07:41:38;1.90;;;1.10;;
13731;SDS011;6937;56.096;12.664;2023-04-01T07:44:26;2.70;;;1.10;;
13731;SDS011;6937;56.096;12.664;2023-04-01T07:47:10;2.17;;;1.10;;
13731;SDS011;6937;56.096;12.664;2023-04-01T07:55:43;1.98;;;0.98;;
13731;SDS011;6937;56.096;12.664;2023-04-01T08:06:37;2.22;;;0.90;;
13731;SDS011;6937;56.096;12.664;2023-04-01T08:09:15;2.15;;;0.90;;
13731;SDS011;6937;56.096;12.664;2023-04-01T08:12:06;0.90;;;0.75;;
13731;SDS011;6937;56.096;12.664;2023-04-01T08:15:10;1.02;;;0.90;;
13731;SDS011;6937;56.096;12.664;2023-04-01T08:20:18;1.98;;;1.00;;
13731;SDS011;6937;56.096;12.664;2023-04-01T08:22:56;2.03;;;0.90;;
13731;SDS011;6937;56.096;12.664;2023-04-01T08:25:26;1.83;;;0.80;;
13731;SDS011;6937;56.096;12.664;2023-04-01T08:28:03;2.17;;;0.85;;
13731;SDS011;6937;56.096;12.664;2023-04-01T08:33:24;1.55;;;1.02;;
13731;SDS011;6937;56.096;12.664;2023-04-01T08:35:54;1.42;;;1.00;;
13731;SDS011;6937;56.096;12.664;2023-04-01T08:38:49;2.90;;;1.00;;
13731;SDS011;6937;56.096;12.664;2023-04-01T08:41:39;3.88;;;1.10;;
13731;SDS011;6937;56.096;12.664;2023-04-01T08:47:12;1.48;;;0.80;;
13731;SDS011;6937;56.096;12.664;2023-04-01T09:00:57;0.93;;;0.68;;
13731;SDS011;6937;56.096;12.664;2023-04-01T09:06:29;1.48;;;0.63;;
13731;SDS011;6937;56.096;12.664;2023-04-01T09:25:45;2.05;;;0.63;;
13731;SDS011;6937;56.096;12.664;2023-04-01T09:28:33;1.50;;;0.60;;
13731;SDS011;6937;56.096;12.664;2023-04-01T09:36:43;0.82;;;0.50;;
13731;SDS011;6937;56.096;12.664;2023-04-01T09:42:26;0.80;;;0.50;;
13731;SDS011;6937;56.096;12.664;2023-04-01T09:50:30;0.98;;;0.63;;
13731;SDS011;6937;56.096;12.664;2023-04-01T09:55:45;1.35;;;0.50;;
13731;SDS011;6937;56.096;12.664;2023-04-01T10:01:18;1.52;;;0.70;;
13731;SDS011;6937;56.096;12.664;2023-04-01T10:12:39;1.38;;;0.50;;
13731;SDS011;6937;56.096;12.664;2023-04-01T10:18:05;0.73;;;0.55;;
13731;SDS011;6937;56.096;12.664;2023-04-01T10:34:36;0.98;;;0.55;;
13731;SDS011;6937;56.096;12.664;2023-04-01T10:48:15;0.63;;;0.40;;
13731;SDS011;6937;56.096;12.664;2023-04-01T10:51:01;0.70;;;0.50;;
13731;SDS011;6937;56.096;12.664;2023-04-01T11:13:21;1.00;;;0.60;;
13731;SDS011;6937;56.096;12.664;2023-04-01T11:16:03;0.55;;;0.47;;
13731;SDS011;6937;56.096;12.664;2023-04-01T11:18:47;0.98;;;0.52;;
13731;SDS011;6937;56.096;12.664;2023-04-01T11:21:43;0.90;;;0.75;;
13731;SDS011;6937;56.096;12.664;2023-04-01T11:33:28;1.02;;;0.50;;
13731;SDS011;6937;56.096;12.664;2023-04-01T11:41:12;2.15;;;0.90;;
13731;SDS011;6937;56.096;12.664;2023-04-01T11:43:57;1.13;;;0.30;;
13731;SDS011;6937;56.096;12.664;2023-04-01T11:52:11;0.30;;;0.30;;
13731;SDS011;6937;56.096;12.664;2023-04-01T11:57:42;1.02;;;0.60;;
13731;SDS011;6937;56.096;12.664;2023-04-01T12:00:23;1.48;;;0.63;;
13731;SDS011;6937;56.096;12.664;2023-04-01T12:03:15;0.73;;;0.50;;
13731;SDS011;6937;56.096;12.664;2023-04-01T12:06:16;0.50;;;0.40;;
13731;SDS011;6937;56.096;12.664;2023-04-01T12:09:04;1.27;;;0.50;;
13731;SDS011;6937;56.096;12.664;2023-04-01T12:14:42;1.30;;;0.60;;
13731;SDS011;6937;56.096;12.664;2023-04-01T12:23:14;0.55;;;0.40;;
13731;SDS011;6937;56.096;12.664;2023-04-01T12:26:06;0.73;;;0.57;;
13731;SDS011;6937;56.096;12.664;2023-04-01T12:39:56;1.45;;;0.47;;
13731;SDS011;6937;56.096;12.664;2023-04-01T12:45:35;0.95;;;0.47;;
13731;SDS011;6937;56.096;12.664;2023-04-01T13:02:20;1.33;;;0.52;;
13731;SDS011;6937;56.096;12.664;2023-04-01T13:13:00;0.90;;;0.50;;
13731;SDS011;6937;56.096;12.664;2023-04-01T13:21:40;2.05;;;0.50;;
13731;SDS011;6937;56.096;12.664;2023-04-01T13:24:18;1.45;;;0.50;;
13731;SDS011;6937;56.096;12.664;2023-04-01T13:26:56;0.98;;;0.52;;
13731;SDS011;6937;56.096;12.664;2023-04-01T13:29:35;0.57;;;0.50;;
13731;SDS011;6937;56.096;12.664;2023-04-01T13:32:14;0.77;;;0.47;;
13731;SDS011;6937;56.096;12.664;2023-04-01T13:40:20;1.38;;;0.60;;
13731;SDS011;6937;56.096;12.664;2023-04-01T13:42:57;1.33;;;0.80;;
13731;SDS011;6937;56.096;12.664;2023-04-01T13:48:40;1.52;;;0.70;;
13731;SDS011;6937;56.096;12.664;2023-04-01T13:57:39;1.35;;;0.52;;
13731;SDS011;6937;56.096;12.664;2023-04-01T14:03:28;1.23;;;0.63;;
13731;SDS011;6937;56.096;12.664;2023-04-01T14:06:05;1.63;;;0.88;;
13731;SDS011;6937;56.096;12.664;2023-04-01T14:09:00;1.63;;;0.60;;
13731;SDS011;6937;56.096;12.664;2023-04-01T14:14:18;2.17;;;0.60;;
13731;SDS011;6937;56.096;12.664;2023-04-01T14:22:46;1.25;;;0.50;;
13731;SDS011;6937;56.096;12.664;2023-04-01T14:28:18;2.22;;;0.70;;
13731;SDS011;6937;56.096;12.664;2023-04-01T14:33:41;2.65;;;0.80;;
13731;SDS011;6937;56.096;12.664;2023-04-01T14:38:53;2.53;;;0.70;;
13731;SDS011;6937;56.096;12.664;2023-04-01T14:50:17;0.77;;;0.55;;
13731;SDS011;6937;56.096;12.664;2023-04-01T15:03:38;0.82;;;0.70;;
13731;SDS011;6937;56.096;12.664;2023-04-01T15:06:26;1.00;;;0.85;;
13731;SDS011;6937;56.096;12.664;2023-04-01T15:12:18;0.88;;;0.60;;
13731;SDS011;6937;56.096;12.664;2023-04-01T15:23:46;1.15;;;0.75;;
13731;SDS011;6937;56.096;12.664;2023-04-01T15:26:40;1.27;;;0.70;;
13731;SDS011;6937;56.096;12.664;2023-04-01T15:43:51;1.10;;;0.80;;
13731;SDS011;6937;56.096;12.664;2023-04-01T15:46:21;1.65;;;0.68;;
13731;SDS011;6937;56.096;12.664;2023-04-01T15:48:55;3.78;;;1.15;;
13731;SDS011;6937;56.096;12.664;2023-04-01T15:51:43;1.42;;;0.77;;
13731;SDS011;6937;56.096;12.664;2023-04-01T15:56:53;1.63;;;0.80;;
13731;SDS011;6937;56.096;12.664;2023-04-01T16:08:37;1.85;;;1.10;;
13731;SDS011;6937;56.096;12.664;2023-04-01T16:11:34;2.38;;;1.10;;
13731;SDS011;6937;56.096;12.664;2023-04-01T16:22:56;1.83;;;0.93;;
13731;SDS011;6937;56.096;12.664;2023-04-01T16:25:35;1.15;;;1.00;;
13731;SDS011;6937;56.096;12.664;2023-04-01T16:28:13;3.85;;;0.98;;
13731;SDS011;6937;56.096;12.664;2023-04-01T16:31:09;1.27;;;0.80;;
13731;SDS011;6937;56.096;12.664;2023-04-01T16:36:40;2.80;;;0.95;;
13731;SDS011;6937;56.096;12.664;2023-04-01T16:39:30;1.95;;;0.80;;
13731;SDS011;6937;56.096;12.664;2023-04-01T16:44:59;1.63;;;0.93;;
13731;SDS011;6937;56.096;12.664;2023-04-01T16:47:30;1.25;;;0.75;;
13731;SDS011;6937;56.096;12.664;2023-04-01T16:50:21;1.42;;;1.00;;
13731;SDS011;6937;56.096;12.664;2023-04-01T16:55:47;2.63;;;0.90;;
13731;SDS011;6937;56.096;12.664;2023-04-01T16:58:26;1.48;;;0.90;;
13731;SDS011;6937;56.096;12.664;2023-04-01T17:01:00;1.70;;;0.80;;
13731;SDS011;6937;56.096;12.664;2023-04-01T17:03:32;1.58;;;0.70;;
13731;SDS011;6937;56.096;12.664;2023-04-01T17:06:17;2.83;;;0.60;;
13731;SDS011;6937;56.096;12.664;2023-04-01T17:28:51;0.75;;;0.50;;
13731;SDS011;6937;56.096;12.664;2023-04-01T17:33:53;1.25;;;0.60;;
13731;SDS011;6937;56.096;12.664;2023-04-01T17:42:15;0.98;;;0.70;;
13731;SDS011;6937;56.096;12.664;2023-04-01T17:44:56;0.88;;;0.50;;
13731;SDS011;6937;56.096;12.664;2023-04-01T17:50:13;0.60;;;0.60;;
13731;SDS011;6937;56.096;12.664;2023-04-01T17:53:02;1.38;;;0.75;;
13731;SDS011;6937;56.096;12.664;2023-04-01T17:58:43;1.80;;;0.88;;
13731;SDS011;6937;56.096;12.664;2023-04-01T18:04:07;0.90;;;0.45;;
13731;SDS011;6937;56.096;12.664;2023-04-01T18:12:25;1.10;;;0.50;;
13731;SDS011;6937;56.096;12.664;2023-04-01T18:17:41;0.75;;;0.60;;
13731;SDS011;6937;56.096;12.664;2023-04-01T18:23:59;0.82;;;0.55;;
13731;SDS011;6937;56.096;12.664;2023-04-01T18:26:13;0.68;;;0.50;;
13731;SDS011;6937;56.096;12.664;2023-04-01T18:28:54;0.70;;;0.50;;
13731;SDS011;6937;56.096;12.664;2023-04-01T18:31:24;2.15;;;0.70;;
13731;SDS011;6937;56.096;12.664;2023-04-01T18:42:41;0.90;;;0.70;;
13731;SDS011;6937;56.096;12.664;2023-04-01T18:45:28;2.22;;;0.85;;
13731;SDS011;6937;56.096;12.664;2023-04-01T18:51:09;1.40;;;0.55;;
13731;SDS011;6937;56.096;12.664;2023-04-01T18:53:40;1.25;;;0.60;;
13731;SDS011;6937;56.096;12.664;2023-04-01T18:56:13;1.40;;;0.70;;
13731;SDS011;6937;56.096;12.664;2023-04-01T18:58:48;1.08;;;0.43;;
13731;SDS011;6937;56.096;12.664;2023-04-01T19:10:22;0.95;;;0.45;;
13731;SDS011;6937;56.096;12.664;2023-04-01T19:20:59;1.17;;;0.60;;
13731;SDS011;6937;56.096;12.664;2023-04-01T19:26:34;2.53;;;0.57;;
13731;SDS011;6937;56.096;12.664;2023-04-01T19:41:26;0.85;;;0.30;;
13731;SDS011;6937;56.096;12.664;2023-04-01T19:44:04;0.68;;;0.40;;
13731;SDS011;6937;56.096;12.664;2023-04-01T19:52:37;1.35;;;0.50;;
13731;SDS011;6937;56.096;12.664;2023-04-01T20:00:58;0.20;;;0.17;;
13731;SDS011;6937;56.096;12.664;2023-04-01T20:12:07;1.13;;;0.43;;
13731;SDS011;6937;56.096;12.664;2023-04-01T20:14:45;0.30;;;0.30;;
13731;SDS011;6937;56.096;12.664;2023-04-01T20:17:15;0.47;;;0.30;;
13731;SDS011;6937;56.096;12.664;2023-04-01T20:19:50;1.30;;;0.40;;
13731;SDS011;6937;56.096;12.664;2023-04-01T20:27:46;0.68;;;0.52;;
13731;SDS011;6937;56.096;12.664;2023-04-01T20:44:02;1.25;;;0.50;;
13731;SDS011;6937;56.096;12.664;2023-04-01T20:52:25;2.03;;;0.68;;
13731;SDS011;6937;56.096;12.664;2023-04-01T20:57:55;0.88;;;0.40;;
13731;SDS011;6937;56.096;12.664;2023-04-01T21:00:41;0.43;;;0.40;;
13731;SDS011;6937;56.096;12.664;2023-04-01T21:03:18;0.43;;;0.40;;
13731;SDS011;6937;56.096;12.664;2023-04-01T21:05:51;0.80;;;0.30;;
13731;SDS011;6937;56.096;12.664;2023-04-01T21:08:49;0.68;;;0.40;;
13731;SDS011;6937;56.096;12.664;2023-04-01T21:11:39;0.40;;;0.28;;
13731;SDS011;6937;56.096;12.664;2023-04-01T21:14:28;0.40;;;0.30;;
13731;SDS011;6937;56.096;12.664;2023-04-01T21:17:12;0.63;;;0.38;;
13731;SDS011;6937;56.096;12.664;2023-04-01T21:19:58;0.40;;;0.32;;
13731;SDS011;6937;56.096;12.664;2023-04-01T21:31:05;1.85;;;0.40;;
13731;SDS011;6937;56.096;12.664;2023-04-01T21:36:54;0.57;;;0.43;;
13731;SDS011;6937;56.096;12.664;2023-04-01T21:42:29;0.47;;;0.40;;
13731;SDS011;6937;56.096;12.664;2023-04-01T21:53:56;0.52;;;0.43;;
13731;SDS011;6937;56.096;12.664;2023-04-01T22:21:29;1.23;;;0.50;;
13731;SDS011;6937;56.096;12.664;2023-04-01T22:24:15;0.30;;;0.30;;
13731;SDS011;6937;56.096;12.664;2023-04-01T22:35:13;0.60;;;0.50;;
13731;SDS011;6937;56.096;12.664;2023-04-01T22:40:34;1.45;;;0.60;;
13731;SDS011;6937;56.096;12.664;2023-04-01T22:43:18;1.80;;;0.50;;
13731;SDS011;6937;56.096;12.664;2023-04-01T22:49:02;0.73;;;0.40;;
13731;SDS011;6937;56.096;12.664;2023-04-01T23:00:06;1.55;;;0.55;;
13731;SDS011;6937;56.096;12.664;2023-04-01T23:05:24;0.95;;;0.40;;
13731;SDS011;6937;56.096;12.664;2023-04-01T23:07:56;1.30;;;0.50;;
13731;SDS011;6937;56.096;12.664;2023-04-01T23:13:31;0.60;;;0.50;;
13731;SDS011;6937;56.096;12.664;2023-04-01T23:16:02;0.82;;;0.60;;
13731;SDS011;6937;56.096;12.664;2023-04-01T23:21:18;1.27;;;0.60;;
13731;SDS011;6937;56.096;12.664;2023-04-01T23:24:07;1.27;;;0.50;;
13731;SDS011;6937;56.096;12.664;2023-04-01T23:29:22;0.85;;;0.50;;
13731;SDS011;6937;56.096;12.664;2023-04-01T23:31:56;0.90;;;0.50;;
13731;SDS011;6937;56.096;12.664;2023-04-01T23:37:09;0.60;;;0.55;;
13731;SDS011;6937;56.096;12.664;2023-04-01T23:39:42;1.27;;;0.52;;
13731;SDS011;6937;56.096;12.664;2023-04-01T23:42:32;1.70;;;0.60;;
13731;SDS011;6937;56.096;12.664;2023-04-01T23:45:11;1.70;;;0.68;;
13731;SDS011;6937;56.096;12.664;2023-04-01T23:47:42;1.15;;;0.50;;
13731;SDS011;6937;56.096;12.664;2023-04-01T23:50:15;1.35;;;0.47;;
13731;SDS011;6937;56.096;12.664;2023-04-01T23:52:44;1.10;;;0.57;;
13731;SDS011;6937;56.096;12.664;2023-04-01T23:55:14;1.33;;;0.70;;
13731;SDS011;6937;56.096;12.664;2023-04-01T23:58:00;1.17;;;0.60;;
